Time;durP1;ratioP1;P1;durP2;ratioP2;P2;SDS_P1;SDS_P2;PMS_P1;PMS_P2;Temp;Humidity;BMP_temperature;BMP_pressure;BME280_temperature;BME280_humidity;BME280_pressure;Samples;Min_cycle;Max_cycle;Signal;HPM_P1;HPM_P2
2022/04/27 00:01:14;;;;;;;4.55;1.90;;;9.60;99.90;10.50;98042.00;;;;4805345;29;88633;-57
2022/04/27 00:03:41;;;;;;;4.20;2.20;;;9.60;99.90;10.60;98038.00;;;;4803273;29;87924;-53
2022/04/27 00:06:09;;;;;;;3.88;2.00;;;9.60;99.90;10.40;98051.00;;;;4797264;29;87324;-56
2022/04/27 00:08:35;;;;;;;2.40;2.00;;;9.50;99.90;10.40;98041.00;;;;4796845;29;87761;-54
2022/04/27 00:11:02;;;;;;;3.97;1.95;;;9.50;99.90;10.30;98059.00;;;;4804050;29;87533;-55
2022/04/27 00:13:28;;;;;;;5.22;2.20;;;9.50;99.90;10.30;98053.00;;;;4798967;29;87432;-56
2022/04/27 00:15:54;;;;;;;3.05;2.00;;;9.50;99.90;10.30;98047.00;;;;4800569;29;87458;-56
2022/04/27 00:18:20;;;;;;;2.92;1.90;;;9.40;99.90;10.30;98061.00;;;;4797831;29;88699;-55
2022/04/27 00:20:47;;;;;;;3.35;1.88;;;9.40;99.90;10.30;98059.00;;;;4799484;29;87462;-55
2022/04/27 00:23:13;;;;;;;2.90;2.00;;;9.40;99.90;10.30;98063.00;;;;4798237;29;87056;-56
2022/04/27 00:25:39;;;;;;;4.28;2.15;;;9.40;99.90;10.20;98060.00;;;;4797785;29;87022;-54
2022/04/27 00:28:06;;;;;;;3.13;1.90;;;9.30;99.90;10.20;98078.00;;;;4796511;29;88728;-56
2022/04/27 00:30:32;;;;;;;2.97;1.95;;;9.30;99.90;10.10;98070.00;;;;4790753;29;88310;-56
2022/04/27 00:32:58;;;;;;;3.53;2.08;;;9.30;99.90;10.20;98069.00;;;;4801123;29;87613;-56
2022/04/27 00:35:24;;;;;;;3.45;1.92;;;9.20;99.90;10.10;98074.00;;;;4804100;29;87094;-55
2022/04/27 00:37:50;;;;;;;2.60;1.67;;;9.20;99.90;10.20;98076.00;;;;4800158;29;88834;-57
2022/04/27 00:40:16;;;;;;;3.55;2.22;;;9.20;99.90;10.10;98079.00;;;;4803147;29;87632;-57
2022/04/27 00:42:43;;;;;;;5.90;2.00;;;9.10;99.90;10.10;98084.00;;;;4798967;29;88021;-56
2022/04/27 00:45:09;;;;;;;3.08;2.20;;;9.10;99.90;10.00;98075.00;;;;4798582;29;86465;-55
2022/04/27 00:47:35;;;;;;;3.65;2.03;;;9.10;99.90;10.00;98074.00;;;;4808379;29;87624;-59
2022/04/27 00:50:02;;;;;;;2.20;1.83;;;9.00;99.90;10.00;98078.00;;;;4809910;29;87573;-60
2022/04/27 00:52:33;;;;;;;2.88;2.03;;;9.00;99.90;10.00;98075.00;;;;4805915;29;88371;-59
2022/04/27 00:54:59;;;;;;;4.03;2.17;;;9.00;99.90;9.90;98073.00;;;;4810164;29;87105;-59
2022/04/27 00:57:26;;;;;;;3.53;2.25;;;8.90;99.90;9.90;98070.00;;;;4786133;29;87006;-58
2022/04/27 00:59:54;;;;;;;3.58;1.92;;;8.90;99.90;9.90;98078.00;;;;4793109;29;88343;-59
2022/04/27 01:02:21;;;;;;;3.65;2.40;;;8.90;99.90;9.90;98084.00;;;;4800751;29;87419;-61
2022/04/27 01:04:47;;;;;;;3.33;2.35;;;8.90;99.90;9.80;98087.00;;;;4807948;29;87213;-55
2022/04/27 01:07:14;;;;;;;3.22;2.40;;;8.80;99.90;9.70;98079.00;;;;4787436;29;88784;-56
2022/04/27 01:09:41;;;;;;;2.83;2.00;;;8.80;99.90;9.80;98083.00;;;;4798849;29;87360;-54
2022/04/27 01:12:08;;;;;;;3.25;2.00;;;8.80;99.90;9.70;98098.00;;;;4813055;29;87513;-55
2022/04/27 01:14:43;;;;;;;3.97;2.50;;;8.80;99.90;9.70;98093.00;;;;4801411;29;88117;-53
2022/04/27 01:17:10;;;;;;;5.00;2.60;;;8.70;99.90;9.70;98081.00;;;;4795605;29;88562;-56
2022/04/27 01:19:37;;;;;;;4.65;2.45;;;8.70;99.90;9.70;98090.00;;;;4799443;29;89553;-53
2022/04/27 01:22:05;;;;;;;3.90;2.30;;;8.70;99.90;9.60;98085.00;;;;4796431;29;87034;-54
2022/04/27 01:24:36;;;;;;;3.63;2.50;;;8.60;99.90;9.50;98083.00;;;;4817389;29;87277;-56
2022/04/27 01:27:03;;;;;;;4.93;2.75;;;8.60;99.90;9.50;98099.00;;;;4801244;29;87845;-57
2022/04/27 01:29:30;;;;;;;3.15;2.60;;;8.60;99.90;9.40;98102.00;;;;4806943;29;88480;-54
2022/04/27 01:32:00;;;;;;;4.32;3.03;;;8.50;99.90;9.40;98093.00;;;;4792152;29;87337;-55
2022/04/27 01:34:26;;;;;;;5.22;3.13;;;8.50;99.90;9.40;98087.00;;;;4803411;29;86923;-57
2022/04/27 01:37:59;;;;;;;4.85;3.10;;;8.50;99.90;9.50;98103.00;;;;4802410;29;87796;-54
2022/04/27 01:39:43;;;;;;;5.85;3.05;;;8.50;99.90;9.40;98099.00;;;;4785570;29;87656;-57
2022/04/27 01:42:09;;;;;;;4.95;3.08;;;8.50;99.90;9.40;98091.00;;;;4800447;29;88454;-57
2022/04/27 01:44:35;;;;;;;4.63;3.38;;;8.50;99.90;9.40;98100.00;;;;4800697;29;86996;-57
2022/04/27 01:47:02;;;;;;;10.75;3.40;;;8.40;99.90;9.40;98093.00;;;;4814198;29;87535;-56
2022/04/27 01:49:28;;;;;;;4.10;3.13;;;8.40;99.90;9.40;98096.00;;;;4800588;29;87391;-57
2022/04/27 01:54:39;;;;;;;3.95;3.03;;;8.40;99.90;9.40;98100.00;;;;4802240;29;87138;-54
2022/04/27 01:57:07;;;;;;;4.35;3.00;;;8.40;99.90;9.30;98097.00;;;;4814069;29;87711;-56
2022/04/27 01:59:34;;;;;;;5.03;3.47;;;8.40;99.90;9.30;98095.00;;;;4800644;29;88155;-57
2022/04/27 02:02:01;;;;;;;3.72;2.97;;;8.30;99.90;9.30;98099.00;;;;4799760;29;87044;-56
2022/04/27 02:04:28;;;;;;;5.30;3.05;;;8.30;99.90;9.20;98106.00;;;;4785996;29;87031;-55
2022/04/27 02:06:55;;;;;;;4.50;3.30;;;8.30;99.90;9.20;98116.00;;;;4799407;29;89612;-53
2022/04/27 02:09:22;;;;;;;4.47;2.92;;;8.30;99.90;9.30;98103.00;;;;4804802;29;89224;-55
2022/04/27 02:11:49;;;;;;;4.10;3.13;;;8.30;99.90;9.30;98094.00;;;;4788161;29;87386;-54
2022/04/27 02:14:15;;;;;;;5.05;3.45;;;8.30;99.90;9.30;98096.00;;;;4813740;29;87109;-57
2022/04/27 02:16:42;;;;;;;5.22;2.85;;;8.30;99.90;9.20;98095.00;;;;4809457;29;88491;-55
2022/04/27 02:19:14;;;;;;;5.25;3.10;;;8.20;99.90;9.30;98100.00;;;;4804443;29;87431;-57
2022/04/27 02:21:43;;;;;;;5.78;3.28;;;8.20;99.90;9.30;98107.00;;;;4793231;29;87568;-57
2022/04/27 02:24:11;;;;;;;5.03;2.97;;;8.30;99.90;9.30;98115.00;;;;4800632;29;86309;-56
2022/04/27 02:26:38;;;;;;;3.92;2.90;;;8.30;99.90;9.30;98109.00;;;;4805151;29;87557;-56
2022/04/27 02:29:04;;;;;;;4.47;2.72;;;8.30;99.90;9.30;98104.00;;;;4786441;29;88509;-55
2022/04/27 02:31:32;;;;;;;4.95;2.90;;;8.30;99.90;9.30;98118.00;;;;4793436;29;88077;-51
2022/04/27 02:33:59;;;;;;;3.50;2.60;;;8.30;99.90;9.30;98121.00;;;;4813337;29;87020;-57
2022/04/27 02:36:25;;;;;;;3.10;2.33;;;8.20;99.90;9.10;98119.00;;;;4801873;29;87560;-57
2022/04/27 02:38:52;;;;;;;3.83;3.00;;;8.30;99.90;9.10;98125.00;;;;4797499;29;87140;-57
2022/04/27 02:41:18;;;;;;;4.15;3.00;;;8.20;99.90;9.20;98130.00;;;;4782007;29;87330;-57
2022/04/27 02:43:44;;;;;;;6.35;2.85;;;8.20;99.90;9.10;98116.00;;;;4799590;29;87079;-58
2022/04/27 02:46:16;;;;;;;6.32;2.88;;;8.20;99.90;9.20;98125.00;;;;4795619;29;88052;-55
2022/04/27 02:51:48;;;;;;;4.38;3.08;;;8.20;99.90;9.20;98129.00;;;;4781784;29;87259;-56
2022/04/27 02:51:51;;;;;;;3.20;2.67;;;8.20;99.90;9.10;98136.00;;;;4804104;29;87013;-55
2022/04/27 02:54:24;;;;;;;5.25;2.97;;;8.10;99.90;9.10;98143.00;;;;4795651;29;87032;-55
2022/04/27 02:56:58;;;;;;;4.95;3.15;;;8.10;99.90;9.10;98125.00;;;;4797164;29;89210;-54
2022/04/27 02:59:24;;;;;;;8.52;3.15;;;8.10;99.90;9.10;98139.00;;;;4801710;29;88140;-55
2022/04/27 03:01:52;;;;;;;4.80;3.20;;;8.10;99.90;9.10;98135.00;;;;4799715;29;87440;-55
2022/04/27 03:04:18;;;;;;;5.70;3.63;;;8.10;99.90;8.90;98131.00;;;;4799574;29;87056;-55
2022/04/27 03:06:45;;;;;;;5.25;3.92;;;7.90;99.90;8.80;98132.00;;;;4819985;29;88651;-63
2022/04/27 03:09:12;;;;;;;4.55;3.65;;;7.90;99.90;8.80;98133.00;;;;4812118;29;87585;-63
2022/04/27 03:11:38;;;;;;;4.43;3.53;;;7.90;99.90;8.90;98136.00;;;;4819323;29;87374;-63
2022/04/27 03:14:20;;;;;;;;;;;7.90;99.90;9.00;98131.00;;;;4797500;29;86567;-62
2022/04/27 03:16:46;;;;;;;6.68;3.90;;;7.90;99.90;8.90;98135.00;;;;4778712;29;87870;-61
2022/04/27 03:19:13;;;;;;;7.30;4.50;;;7.90;99.90;9.00;98139.00;;;;4799381;29;87181;-62
2022/04/27 03:21:39;;;;;;;6.22;4.03;;;7.90;99.90;9.00;98127.00;;;;4801509;29;88419;-62
2022/04/27 03:24:06;;;;;;;5.63;4.15;;;7.90;99.90;9.00;98138.00;;;;4800703;29;87161;-63
2022/04/27 03:26:33;;;;;;;4.78;3.85;;;7.90;99.90;9.00;98141.00;;;;4795530;29;87590;-64
2022/04/27 03:29:00;;;;;;;4.85;4.00;;;8.00;99.90;9.20;98138.00;;;;4783287;29;91448;-63
2022/04/27 03:31:27;;;;;;;4.47;3.72;;;8.00;99.90;9.30;98149.00;;;;4790274;29;87233;-63
2022/04/27 03:33:53;;;;;;;4.80;3.58;;;8.10;99.90;9.30;98144.00;;;;4804053;29;87600;-64
2022/04/27 03:36:20;;;;;;;4.70;3.70;;;8.10;99.90;9.20;98143.00;;;;4798366;29;87379;-66
2022/04/27 03:38:48;;;;;;;4.20;3.75;;;8.00;99.90;9.10;98142.00;;;;4816204;29;89652;-63
2022/04/27 03:41:22;;;;;;;5.40;3.63;;;8.00;99.90;9.10;98152.00;;;;4795290;29;87273;-64
2022/04/27 03:43:50;;;;;;;6.05;3.25;;;8.00;99.90;9.10;98155.00;;;;4767507;29;87216;-65
2022/04/27 03:46:19;;;;;;;5.18;4.00;;;8.00;99.90;9.10;98148.00;;;;4805330;29;88736;-65
2022/04/27 03:48:47;;;;;;;5.25;3.88;;;8.00;99.90;9.10;98161.00;;;;4783868;29;88354;-65
2022/04/27 03:51:14;;;;;;;5.43;3.92;;;8.00;99.90;9.10;98154.00;;;;4807900;29;87209;-66
2022/04/27 03:53:45;;;;;;;6.93;3.75;;;8.00;99.90;9.10;98150.00;;;;4771504;29;87100;-64
2022/04/27 03:56:12;;;;;;;4.15;3.47;;;8.00;99.90;9.10;98156.00;;;;4807605;29;88638;-64
2022/04/27 03:58:39;;;;;;;6.00;4.30;;;8.00;99.90;9.30;98151.00;;;;4788199;29;87059;-64
2022/04/27 04:01:08;;;;;;;5.20;4.00;;;8.10;99.90;9.60;98152.00;;;;4776975;29;87488;-64
2022/04/27 04:03:35;;;;;;;5.38;3.42;;;8.30;99.90;10.00;98157.00;;;;4800277;29;86908;-63
2022/04/27 04:06:02;;;;;;;6.03;3.50;;;8.50;99.90;10.40;98161.00;;;;4804751;29;87586;-64
2022/04/27 04:08:39;;;;;;;6.72;3.53;;;8.80;99.90;10.50;98161.00;;;;4784930;29;89254;-61
2022/04/27 04:11:05;;;;;;;5.80;3.45;;;8.90;99.90;10.40;98153.00;;;;4799272;29;87963;-62
2022/04/27 04:14:01;;;;;;;6.60;3.45;;;8.80;99.90;10.20;98160.00;;;;4767711;29;87170;-61
2022/04/27 04:16:48;;;;;;;4.43;3.35;;;8.70;99.90;10.10;98162.00;;;;4803938;29;87642;-61
2022/04/27 04:19:33;;;;;;;4.88;3.53;;;8.60;99.90;10.20;98165.00;;;;4797243;29;87272;-60
2022/04/27 04:22:18;;;;;;;6.93;3.40;;;8.70;99.90;10.50;98163.00;;;;4789584;29;87059;-61
2022/04/27 04:30:30;;;;;;;11.00;3.80;;;9.50;99.90;12.50;98165.00;;;;4799884;29;87203;-62
2022/04/27 04:33:32;;;;;;;7.40;3.63;;;10.20;99.90;13.40;98152.00;;;;4781529;29;87119;-62
2022/04/27 04:35:59;;;;;;;4.78;2.97;;;10.90;99.90;13.90;98157.00;;;;4805054;29;87422;-63
2022/04/27 04:38:26;;;;;;;5.97;3.50;;;11.20;99.90;14.40;98148.00;;;;4780732;29;89905;-62
2022/04/27 04:40:57;;;;;;;6.30;3.07;;;11.50;99.90;14.60;98146.00;;;;4816197;29;88319;-57
2022/04/27 04:43:33;;;;;;;4.88;2.97;;;11.70;99.90;14.50;98156.00;;;;4802279;29;87464;-59
2022/04/27 04:46:00;;;;;;;5.22;3.00;;;11.70;99.90;14.70;98154.00;;;;4780262;29;87174;-54
2022/04/27 04:48:45;;;;;;;6.10;2.97;;;11.80;99.90;14.40;98155.00;;;;4803007;29;88142;-60
2022/04/27 04:51:39;;;;;;;8.07;3.03;;;11.60;99.90;14.50;98156.00;;;;4785724;29;89368;-57
2022/04/27 04:54:25;;;;;;;6.05;2.67;;;11.60;99.90;14.60;98164.00;;;;4786397;29;87071;-59
2022/04/27 04:56:57;;;;;;;4.22;2.70;;;12.00;99.90;14.60;98163.00;;;;4799536;29;86377;-59
2022/04/27 04:59:44;;;;;;;3.83;2.65;;;12.10;99.90;14.10;98177.00;;;;4772514;29;89849;-56
2022/04/27 05:02:34;;;;;;;4.85;2.10;;;11.90;99.90;13.70;98166.00;;;;4795524;29;88437;-58
2022/04/27 05:05:24;;;;;;;3.33;2.10;;;11.50;99.90;13.10;98172.00;;;;4803783;29;88615;-55
2022/04/27 05:07:59;;;;;;;8.68;2.03;;;11.30;99.90;12.80;98156.00;;;;4799280;29;87307;-52
2022/04/27 05:10:45;;;;;;;2.10;1.80;;;11.10;99.90;12.40;98164.00;;;;4779219;29;87826;-54
2022/04/27 05:13:44;;;;;;;3.45;2.15;;;10.70;99.90;12.00;98164.00;;;;4792015;29;87472;-56
2022/04/27 05:16:32;;;;;;;5.03;2.30;;;10.50;99.90;11.80;98161.00;;;;4799814;29;87323;-56
2022/04/27 05:19:17;;;;;;;4.25;1.90;;;10.30;99.90;11.90;98178.00;;;;4796224;29;87624;-57
2022/04/27 05:22:22;;;;;;;4.72;2.53;;;10.50;99.90;12.10;98161.00;;;;4736759;29;88830;-58
2022/04/27 05:25:11;;;;;;;4.47;2.33;;;10.60;99.90;12.40;98165.00;;;;4735416;29;86408;-57
2022/04/27 05:27:53;;;;;;;3.72;2.22;;;11.00;99.90;12.40;98167.00;;;;4770106;29;87465;-56
2022/04/27 05:33:48;;;;;;;2.60;1.80;;;11.00;99.90;12.60;98174.00;;;;4803841;29;88674;-56
2022/04/27 05:36:37;;;;;;;4.03;2.17;;;11.20;99.90;12.80;98183.00;;;;4794223;29;88143;-56
2022/04/27 05:39:27;;;;;;;3.22;1.80;;;11.30;99.90;12.80;98184.00;;;;4805016;29;87394;-57
2022/04/27 05:42:30;;;;;;;5.05;1.95;;;11.40;99.90;12.70;98175.00;;;;4724432;29;88068;-55
2022/04/27 05:45:15;;;;;;;6.15;1.90;;;11.20;99.90;12.80;98197.00;;;;4811039;29;87584;-62
2022/04/27 05:47:52;;;;;;;5.03;1.90;;;11.40;99.90;12.80;98197.00;;;;4788985;29;88412;-61
2022/04/27 05:50:35;;;;;;;4.78;1.80;;;11.40;99.90;12.90;98181.00;;;;4772358;29;87298;-57
2022/04/27 05:53:11;;;;;;;3.30;1.75;;;11.50;99.90;12.60;98188.00;;;;4792841;29;86597;-57
2022/04/27 05:56:01;;;;;;;3.70;1.90;;;11.30;99.90;12.40;98185.00;;;;4778294;29;88296;-54
2022/04/27 05:59:03;;;;;;;4.93;2.15;;;11.00;99.90;12.70;98193.00;;;;4780422;29;89103;-58
2022/04/27 06:01:58;;;;;;;5.97;1.70;;;11.30;99.90;12.50;98197.00;;;;4799451;29;88365;-54
2022/04/27 06:04:26;;;;;;;5.82;2.03;;;11.30;99.90;12.60;98198.00;;;;4794022;29;87519;-58
2022/04/27 06:06:53;;;;;;;4.93;2.15;;;11.30;99.90;12.80;98199.00;;;;4814258;29;87638;-58
2022/04/27 06:09:21;;;;;;;6.25;2.13;;;11.40;99.90;13.10;98198.00;;;;4798255;29;87516;-58
2022/04/27 06:12:05;;;;;;;6.03;1.98;;;11.70;99.90;12.90;98208.00;;;;4799270;29;88435;-55
2022/04/27 06:14:43;;;;;;;6.97;2.67;;;11.60;99.90;12.80;98215.00;;;;4799378;29;87389;-56
2022/04/27 06:17:17;;;;;;;3.28;1.90;;;11.50;99.90;12.80;98221.00;;;;4801551;29;87622;-58
2022/04/27 06:19:44;;;;;;;3.80;2.30;;;11.40;99.90;13.00;98214.00;;;;4796107;29;88371;-63
2022/04/27 06:22:13;;;;;;;4.53;2.50;;;11.50;99.90;13.20;98213.00;;;;4802319;29;87107;-63
2022/04/27 06:24:40;;;;;;;5.50;2.47;;;11.80;99.90;13.20;98216.00;;;;4783837;29;87426;-64
2022/04/27 06:27:24;;;;;;;4.03;2.17;;;11.80;99.90;13.30;98227.00;;;;4788315;29;88531;-62
2022/04/27 06:29:51;;;;;;;3.58;2.22;;;11.90;99.90;13.50;98213.00;;;;4784820;29;89517;-63
2022/04/27 06:32:18;;;;;;;8.00;2.63;;;12.10;99.90;13.60;98222.00;;;;4790851;29;87059;-63
2022/04/27 06:34:44;;;;;;;5.28;2.15;;;12.30;99.90;13.70;98227.00;;;;4779616;29;87076;-62
2022/04/27 06:37:11;;;;;;;7.28;2.80;;;12.30;99.90;13.60;98237.00;;;;4793225;29;88622;-62
2022/04/27 06:39:43;;;;;;;7.82;2.55;;;12.30;99.90;13.50;98230.00;;;;4813017;29;87532;-62
2022/04/27 06:42:09;;;;;;;5.88;2.83;;;12.10;99.90;13.20;98220.00;;;;4797777;29;87443;-62
2022/04/27 06:44:35;;;;;;;6.93;2.50;;;11.80;99.90;13.10;98234.00;;;;4796108;29;86376;-62
2022/04/27 06:47:34;;;;;;;8.10;3.45;;;11.60;99.90;12.80;98227.00;;;;4767799;29;88247;-63
2022/04/27 06:50:19;;;;;;;6.90;2.78;;;11.50;99.90;12.80;98230.00;;;;4783396;29;87732;-63
2022/04/27 06:53:04;;;;;;;5.45;2.63;;;11.40;99.90;12.50;98229.00;;;;4789185;29;88014;-63
2022/04/27 06:56:05;;;;;;;4.38;2.53;;;11.30;99.90;12.60;98233.00;;;;4793674;29;87822;-63
2022/04/27 06:58:54;;;;;;;6.03;3.15;;;11.40;99.90;12.70;98236.00;;;;4799066;29;87697;-63
2022/04/27 07:01:27;;;;;;;6.82;3.10;;;11.40;99.90;12.70;98247.00;;;;4807393;29;87520;-61
2022/04/27 07:03:55;;;;;;;6.65;2.85;;;11.50;99.90;12.90;98236.00;;;;4816065;29;87510;-61
2022/04/27 07:06:23;;;;;;;8.45;3.10;;;11.60;99.90;13.10;98228.00;;;;4794736;29;87600;-62
2022/04/27 07:08:49;;;;;;;12.48;3.03;;;11.90;99.90;13.30;98228.00;;;;4800794;29;88203;-62
2022/04/27 07:11:15;;;;;;;7.75;2.60;;;12.00;99.90;13.30;98237.00;;;;4802700;29;87312;-62
2022/04/27 07:13:41;;;;;;;7.03;2.78;;;12.10;99.90;13.50;98238.00;;;;4800818;29;87100;-62
2022/04/27 07:16:07;;;;;;;11.30;3.25;;;12.20;99.90;13.50;98244.00;;;;4803741;29;87479;-61
2022/04/27 07:18:34;;;;;;;6.38;3.17;;;12.10;99.90;13.40;98252.00;;;;4803676;29;90167;-62
2022/04/27 07:21:00;;;;;;;6.00;2.67;;;12.10;99.90;13.20;98244.00;;;;4803096;29;88508;-61
2022/04/27 07:23:27;;;;;;;4.38;2.80;;;12.00;99.90;13.10;98261.00;;;;4808607;29;87182;-62
2022/04/27 07:25:53;;;;;;;5.22;2.83;;;11.90;99.90;13.40;98250.00;;;;4804891;29;87590;-61
2022/04/27 07:28:19;;;;;;;5.22;2.42;;;12.10;99.90;13.20;98235.00;;;;4817414;29;87754;-63
2022/04/27 07:30:45;;;;;;;4.53;2.60;;;12.10;99.90;13.00;98254.00;;;;4797480;29;87061;-62
2022/04/27 07:33:11;;;;;;;6.43;3.00;;;11.80;99.90;13.00;98264.00;;;;4810962;29;87281;-62
2022/04/27 07:35:38;;;;;;;4.22;2.00;;;11.90;99.90;13.00;98258.00;;;;4797107;29;86754;-63
2022/04/27 07:38:04;;;;;;;8.65;2.70;;;11.80;99.90;13.20;98270.00;;;;4798321;29;87708;-63
2022/04/27 07:40:30;;;;;;;4.60;3.05;;;12.00;99.90;13.50;98256.00;;;;4806585;29;87350;-63
2022/04/27 07:42:58;;;;;;;7.13;2.80;;;12.20;99.90;13.20;98245.00;;;;4797867;29;88425;-60
2022/04/27 07:45:24;;;;;;;5.68;2.67;;;12.10;99.90;13.40;98264.00;;;;4801300;29;87195;-63
2022/04/27 07:47:50;;;;;;;7.60;2.65;;;12.10;99.90;13.30;98272.00;;;;4804667;29;88767;-63
2022/04/27 07:50:18;;;;;;;6.38;2.42;;;12.10;99.90;13.50;98264.00;;;;4791598;29;87877;-63
2022/04/27 07:52:44;;;;;;;6.03;2.40;;;12.20;99.90;13.50;98287.00;;;;4795110;29;87018;-63
2022/04/27 07:55:11;;;;;;;7.85;2.28;;;12.30;99.90;13.30;98280.00;;;;4801957;29;87248;-62
2022/04/27 07:57:37;;;;;;;4.38;1.80;;;12.20;99.90;13.30;98258.00;;;;4809774;29;89106;-62
2022/04/27 08:00:11;;;;;;;7.05;2.30;;;12.10;99.90;13.50;98278.00;;;;4801440;29;88398;-61
2022/04/27 08:02:42;;;;;;;2.90;2.08;;;12.20;99.90;13.50;98282.00;;;;4776218;29;87143;-61
2022/04/27 08:05:10;;;;;;;3.22;2.08;;;12.10;99.90;13.60;98268.00;;;;4799209;29;87089;-62
2022/04/27 08:07:41;;;;;;;3.70;2.15;;;12.30;99.90;13.80;98260.00;;;;4802936;29;89714;-62
2022/04/27 08:10:08;;;;;;;6.55;2.20;;;12.40;99.90;13.90;98253.00;;;;4798750;29;89330;-62
2022/04/27 08:12:35;;;;;;;9.43;2.42;;;12.50;99.90;13.80;98270.00;;;;4800753;29;87366;-62
2022/04/27 08:15:01;;;;;;;4.68;2.55;;;12.50;99.90;13.80;98248.00;;;;4798615;29;87551;-62
2022/04/27 08:17:29;;;;;;;3.10;1.77;;;12.40;99.90;13.70;98268.00;;;;4796677;29;89064;-62
2022/04/27 08:21:13;;;;;;;2.47;1.60;;;12.30;99.90;13.60;98275.00;;;;4801551;29;87509;-63
2022/04/27 08:22:41;;;;;;;4.80;1.90;;;12.20;99.90;13.80;98264.00;;;;4807718;29;87067;-62
2022/04/27 08:25:08;;;;;;;3.60;1.92;;;12.40;99.90;13.80;98263.00;;;;4804613;29;86736;-62
2022/04/27 08:27:35;;;;;;;7.25;2.10;;;12.40;99.90;14.00;98260.00;;;;4806640;29;87645;-62
2022/04/27 08:30:01;;;;;;;7.68;2.00;;;12.60;99.90;14.00;98249.00;;;;4791329;29;87040;-64
2022/04/27 08:32:29;;;;;;;3.60;1.95;;;12.60;99.90;14.20;98244.00;;;;4809132;29;88232;-62
2022/04/27 08:34:55;;;;;;;4.45;2.45;;;12.80;99.90;14.10;98257.00;;;;4798503;29;86956;-62
2022/04/27 08:37:21;;;;;;;4.30;2.03;;;12.70;99.90;14.70;98245.00;;;;4797864;29;87767;-63
2022/04/27 08:39:49;;;;;;;3.35;2.10;;;13.30;99.90;15.10;98242.00;;;;4805267;29;87067;-63
2022/04/27 08:42:15;;;;;;;5.25;2.05;;;13.60;99.90;15.20;98249.00;;;;4801651;29;87534;-63
2022/04/27 08:44:41;;;;;;;7.03;2.13;;;13.70;99.90;15.10;98243.00;;;;4801809;29;87098;-62
2022/04/27 08:47:09;;;;;;;5.75;2.00;;;13.60;99.90;15.00;98250.00;;;;4807057;29;88211;-62
2022/04/27 08:49:35;;;;;;;5.32;2.35;;;13.50;99.90;14.90;98257.00;;;;4808675;29;88522;-62
2022/04/27 08:52:02;;;;;;;10.43;2.63;;;13.40;99.90;14.70;98247.00;;;;4806862;29;87403;-62
2022/04/27 08:54:29;;;;;;;9.60;2.50;;;13.30;99.90;14.40;98252.00;;;;4799100;29;87085;-61
2022/04/27 08:56:55;;;;;;;4.53;2.35;;;13.20;99.90;14.20;98261.00;;;;4805451;29;90056;-62
2022/04/27 08:59:21;;;;;;;3.95;1.80;;;12.90;99.90;13.80;98265.00;;;;4802440;29;88216;-62
2022/04/27 09:01:48;;;;;;;4.65;2.05;;;12.60;99.90;13.60;98262.00;;;;4809681;29;87381;-61
2022/04/27 09:04:16;;;;;;;3.55;2.15;;;12.40;99.90;13.40;98269.00;;;;4801227;29;87134;-62
2022/04/27 09:06:44;;;;;;;7.95;2.10;;;12.20;99.90;13.10;98292.00;;;;4805727;29;87625;-62
2022/04/27 09:09:37;;;;;;;6.00;2.17;;;12.00;99.90;12.70;98272.00;;;;4800318;29;88629;-62
2022/04/27 09:12:08;;;;;;;6.93;2.03;;;11.70;99.90;12.60;98284.00;;;;4799382;29;86982;-62
2022/04/27 09:14:38;;;;;;;5.82;2.20;;;11.50;99.90;12.50;98287.00;;;;4800628;29;86475;-62
2022/04/27 09:23:03;;;;;;;5.93;2.28;;;11.20;99.90;12.00;98274.00;;;;4787943;29;88309;-61
2022/04/27 09:25:35;;;;;;;9.50;2.30;;;11.00;99.90;11.80;98285.00;;;;4796456;29;87548;-61
2022/04/27 09:28:05;;;;;;;4.40;2.28;;;10.90;99.90;11.80;98292.00;;;;4798819;29;87924;-61
2022/04/27 09:30:33;;;;;;;4.05;2.47;;;10.90;99.90;11.70;98290.00;;;;4798046;29;87362;-61
2022/04/27 09:33:00;;;;;;;6.55;2.53;;;10.80;99.90;11.70;98295.00;;;;4809712;29;87079;-62
2022/04/27 09:35:35;;;;;;;8.45;2.50;;;10.70;99.90;11.80;98300.00;;;;4794824;29;87015;-62
2022/04/27 09:38:15;;;;;;;3.88;2.35;;;10.70;99.90;11.80;98305.00;;;;4796566;29;88772;-61
2022/04/27 09:40:57;;;;;;;6.47;2.38;;;10.80;99.90;11.70;98306.00;;;;4805129;29;87350;-62
2022/04/27 09:43:46;;;;;;;7.75;2.75;;;10.70;99.90;11.70;98314.00;;;;4795583;29;86950;-62
2022/04/27 09:46:22;;;;;;;8.07;2.50;;;10.80;99.90;11.70;98309.00;;;;4808654;29;87490;-63
2022/04/27 09:49:14;;;;;;;6.88;3.08;;;10.70;99.90;11.90;98315.00;;;;4800130;29;89675;-63
2022/04/27 09:51:49;;;;;;;6.40;2.55;;;10.80;99.90;12.00;98306.00;;;;4809461;29;88176;-63
2022/04/27 09:54:31;;;;;;;6.45;2.40;;;11.00;99.90;12.10;98322.00;;;;4799402;29;87055;-62
2022/04/27 09:57:10;;;;;;;5.63;2.30;;;11.00;99.90;12.20;98311.00;;;;4793871;29;87684;-62
2022/04/27 09:59:37;;;;;;;5.63;2.30;;;11.10;99.90;12.20;98315.00;;;;4796728;29;88722;-63
2022/04/27 10:02:14;;;;;;;7.60;2.40;;;11.10;99.90;12.30;98329.00;;;;4790252;29;87411;-62
2022/04/27 10:04:43;;;;;;;6.15;2.60;;;11.20;99.90;12.30;98328.00;;;;4798535;29;87536;-62
2022/04/27 10:07:10;;;;;;;7.40;2.65;;;11.10;99.90;12.30;98330.00;;;;4799577;29;86684;-62
2022/04/27 10:09:36;;;;;;;4.30;1.90;;;11.20;99.90;12.50;98326.00;;;;4801105;29;87666;-62
2022/04/27 10:12:06;;;;;;;8.15;2.35;;;11.30;99.90;12.40;98322.00;;;;4798833;29;88409;-63
2022/04/27 10:14:32;;;;;;;6.97;2.45;;;11.30;99.90;12.30;98336.00;;;;4798343;29;88041;-62
2022/04/27 10:16:59;;;;;;;4.15;1.92;;;11.20;99.90;12.20;98330.00;;;;4794542;29;87379;-62
2022/04/27 10:19:25;;;;;;;4.38;2.38;;;11.10;99.90;12.20;98343.00;;;;4798099;29;87403;-62
2022/04/27 10:21:59;;;;;;;3.65;2.20;;;11.10;99.90;12.20;98338.00;;;;4796784;29;87500;-62
2022/04/27 10:24:46;;;;;;;4.03;2.08;;;11.10;99.90;12.30;98339.00;;;;4790830;29;87071;-63
2022/04/27 10:27:23;;;;;;;5.10;2.10;;;11.20;99.90;12.40;98348.00;;;;4798179;29;87018;-63
2022/04/27 10:30:02;;;;;;;7.15;2.15;;;11.30;99.90;12.30;98351.00;;;;4801306;29;87619;-61
2022/04/27 10:32:43;;;;;;;4.35;2.50;;;11.30;99.90;12.20;98347.00;;;;4807338;29;87798;-63
2022/04/27 10:35:14;;;;;;;2.83;1.98;;;11.20;99.90;12.20;98347.00;;;;4796468;29;88156;-63
2022/04/27 10:38:02;;;;;;;3.53;1.80;;;11.20;99.90;12.10;98357.00;;;;4796872;29;87056;-62
2022/04/27 10:40:41;;;;;;;7.50;2.83;;;11.00;99.90;12.30;98352.00;;;;4784863;29;89629;-63
2022/04/27 10:43:07;;;;;;;7.53;2.70;;;11.30;99.90;12.80;98358.00;;;;4798898;29;88538;-62
2022/04/27 10:45:41;;;;;;;4.38;2.20;;;11.60;99.90;13.00;98348.00;;;;4795250;29;87036;-63
2022/04/27 10:48:17;;;;;;;8.18;2.55;;;11.80;99.90;13.40;98354.00;;;;4805397;29;87111;-63
2022/04/27 10:51:13;;;;;;;3.78;1.92;;;12.10;99.90;13.40;98355.00;;;;4808893;29;87629;-63
2022/04/27 10:53:42;;;;;;;12.05;2.10;;;12.20;99.90;13.50;98357.00;;;;4795769;29;87437;-63
2022/04/27 10:56:29;;;;;;;7.25;2.10;;;12.10;99.90;13.40;98353.00;;;;4796929;29;87011;-62
2022/04/27 10:58:56;;;;;;;12.23;3.08;;;12.20;99.90;13.80;98349.00;;;;4794835;29;86501;-62
2022/04/27 11:01:31;;;;;;;4.22;2.10;;;12.50;99.90;14.00;98345.00;;;;4790445;29;87754;-62
2022/04/27 11:04:05;;;;;;;6.63;2.33;;;12.70;99.90;14.20;98345.00;;;;4797864;29;88385;-62
2022/04/27 11:06:55;;;;;;;7.57;2.72;;;12.90;99.90;14.20;98347.00;;;;4780929;29;88004;-62
2022/04/27 11:09:39;;;;;;;7.67;1.93;;;12.90;99.90;14.10;98350.00;;;;4799308;29;87089;-62
2022/04/27 11:12:06;;;;;;;5.43;1.60;;;12.80;99.90;14.20;98344.00;;;;4797986;29;87527;-62
2022/04/27 11:14:34;;;;;;;6.65;1.90;;;12.80;99.90;13.80;98351.00;;;;4797885;29;87477;-62
2022/04/27 11:17:01;;;;;;;15.50;2.08;;;12.60;99.90;13.70;98354.00;;;;4793039;29;87551;-62
2022/04/27 11:19:39;;;;;;;7.93;2.90;;;12.50;99.90;13.30;98360.00;;;;4796034;29;87497;-62
2022/04/27 11:22:15;;;;;;;7.53;2.08;;;12.10;99.90;13.20;98360.00;;;;4800854;29;87694;-63
2022/04/27 11:24:45;;;;;;;4.68;2.00;;;12.00;99.90;13.00;98374.00;;;;4806722;29;88703;-62
2022/04/27 11:27:12;;;;;;;4.28;2.30;;;11.80;99.90;12.10;98418.00;;;;4792258;29;87381;-63
2022/04/27 11:29:38;;;;;;;5.32;1.80;;;11.20;99.90;11.00;98401.00;;;;4803439;29;87076;-64
2022/04/27 11:32:06;;;;;;;6.63;2.33;;;10.10;99.90;10.70;98407.00;;;;4805719;29;88808;-64
2022/04/27 11:34:33;;;;;;;3.33;1.58;;;9.70;99.90;10.30;98421.00;;;;4801082;29;88836;-63
2022/04/27 11:37:18;;;;;;;2.85;2.00;;;9.40;99.90;9.90;98425.00;;;;4795824;29;87342;-63
2022/04/27 11:39:45;;;;;;;4.10;2.30;;;8.90;99.90;9.40;98436.00;;;;4801249;29;87465;-62